Time;durP1;ratioP1;P1;durP2;ratioP2;P2;SDS_P1;SDS_P2;PMS_P1;PMS_P2;Temp;Humidity;BMP_temperature;BMP_pressure;BME280_temperature;BME280_humidity;BME280_pressure;Samples;Min_cycle;Max_cycle;Signal;HPM_P1;HPM_P2
2022/05/15 00:01:31;;;;;;;8.20;3.50;;;23.00;41.40;;;;;;5067623;28;20464;-82
2022/05/15 00:03:59;;;;;;;8.60;3.80;;;23.00;41.40;;;;;;5067024;28;20480;-82
2022/05/15 00:06:27;;;;;;;6.27;3.20;;;23.00;41.40;;;;;;5066054;28;20466;-82
2022/05/15 00:08:55;;;;;;;9.50;3.43;;;23.00;41.40;;;;;;5047258;28;20446;-82
2022/05/15 00:11:23;;;;;;;6.57;3.37;;;23.00;41.40;;;;;;5046832;28;20471;-83
2022/05/15 00:13:52;;;;;;;7.30;3.97;;;23.00;41.40;;;;;;5046744;28;20426;-82
2022/05/15 00:16:20;;;;;;;5.03;3.20;;;22.90;41.40;;;;;;5047205;28;20426;-82
2022/05/15 00:18:49;;;;;;;9.30;3.60;;;22.90;41.40;;;;;;5047601;28;20443;-82
2022/05/15 00:21:18;;;;;;;6.60;3.20;;;22.90;41.40;;;;;;5046929;28;20502;-82
2022/05/15 00:23:46;;;;;;;10.73;3.43;;;22.80;41.40;;;;;;5064039;28;20450;-83
2022/05/15 00:26:16;;;;;;;7.10;3.40;;;22.80;41.40;;;;;;5066916;28;20502;-83
2022/05/15 00:28:44;;;;;;;7.60;3.57;;;22.80;41.40;;;;;;5067528;28;20417;-83
2022/05/15 00:31:13;;;;;;;7.10;3.47;;;22.80;41.40;;;;;;5067225;28;20458;-82
2022/05/15 00:33:43;;;;;;;8.70;3.10;;;22.80;41.50;;;;;;5067317;28;20420;-82
2022/05/15 00:36:11;;;;;;;8.97;3.60;;;22.80;41.50;;;;;;5067316;28;20444;-82
2022/05/15 00:38:39;;;;;;;7.03;3.30;;;22.70;41.50;;;;;;5066819;28;20458;-82
2022/05/15 00:41:07;;;;;;;8.00;3.43;;;22.70;41.50;;;;;;5054055;28;20442;-82
2022/05/15 00:43:39;;;;;;;5.57;3.37;;;22.70;41.50;;;;;;5049065;28;20439;-82
2022/05/15 00:46:11;;;;;;;6.97;3.10;;;22.60;41.50;;;;;;5050836;28;20421;-82
2022/05/15 00:48:41;;;;;;;9.90;3.70;;;22.60;41.60;;;;;;5050943;28;20451;-82
2022/05/15 00:51:18;;;;;;;8.47;3.40;;;22.60;41.70;;;;;;5050321;28;20463;-82
2022/05/15 00:53:57;;;;;;;7.37;3.67;;;22.60;41.60;;;;;;5048431;28;20458;-84
2022/05/15 00:56:28;;;;;;;7.40;3.17;;;22.60;41.80;;;;;;5065294;28;20450;-83
2022/05/15 00:59:09;;;;;;;5.93;3.13;;;22.50;41.60;;;;;;5067643;28;20496;-83
2022/05/15 01:01:37;;;;;;;8.37;3.67;;;22.50;41.60;;;;;;5066050;28;20465;-83
2022/05/15 01:04:07;;;;;;;7.13;3.33;;;22.50;41.60;;;;;;5066562;28;20443;-83
2022/05/15 01:06:36;;;;;;;6.63;3.50;;;22.50;41.70;;;;;;5064015;28;20477;-83
2022/05/15 01:09:05;;;;;;;6.47;3.67;;;22.50;41.60;;;;;;5064648;28;20468;-83
2022/05/15 01:11:34;;;;;;;8.43;3.23;;;22.50;41.60;;;;;;5062953;28;20465;-83
2022/05/15 01:14:06;;;;;;;12.17;3.40;;;22.40;41.60;;;;;;5061137;28;20463;-84
2022/05/15 01:16:34;;;;;;;8.30;3.60;;;22.40;41.70;;;;;;5057924;28;20432;-83
2022/05/15 01:19:03;;;;;;;9.60;3.90;;;22.40;41.80;;;;;;5058391;28;20442;-84
2022/05/15 01:21:34;;;;;;;7.23;3.73;;;22.30;41.70;;;;;;5057720;28;20470;-84
2022/05/15 01:24:02;;;;;;;9.20;3.37;;;22.30;41.80;;;;;;5057828;28;20481;-83
2022/05/15 01:26:38;;;;;;;5.23;3.33;;;22.30;41.80;;;;;;5058367;28;20447;-84
2022/05/15 01:29:08;;;;;;;8.30;2.83;;;22.20;41.80;;;;;;5039373;28;20419;-84
2022/05/15 01:31:37;;;;;;;8.20;3.83;;;22.20;41.90;;;;;;5037514;28;20440;-83
2022/05/15 01:34:07;;;;;;;9.63;3.40;;;22.30;41.80;;;;;;5038442;28;20414;-83
2022/05/15 01:36:37;;;;;;;6.57;3.53;;;22.20;41.70;;;;;;5037856;28;20490;-83
2022/05/15 01:39:05;;;;;;;6.00;2.97;;;22.20;41.80;;;;;;5038037;28;20450;-84
2022/05/15 01:41:33;;;;;;;6.80;3.50;;;22.20;41.60;;;;;;5038919;28;20479;-84
2022/05/15 01:44:01;;;;;;;4.50;3.17;;;22.20;41.80;;;;;;5043972;28;20474;-83
2022/05/15 01:46:30;;;;;;;7.63;3.83;;;22.20;41.70;;;;;;5059853;28;20473;-83
2022/05/15 01:48:59;;;;;;;7.67;3.70;;;22.20;41.80;;;;;;5039298;28;20445;-83
2022/05/15 01:51:27;;;;;;;5.73;3.33;;;22.10;41.80;;;;;;5038769;28;20467;-83
2022/05/15 01:54:00;;;;;;;10.30;3.70;;;22.20;41.70;;;;;;5037784;28;20448;-83
2022/05/15 01:56:34;;;;;;;10.50;3.67;;;22.10;41.80;;;;;;5039184;28;20426;-83
2022/05/15 01:59:02;;;;;;;8.63;3.47;;;22.10;41.80;;;;;;5038474;28;20448;-84
2022/05/15 02:01:30;;;;;;;7.30;3.30;;;22.10;41.80;;;;;;5043828;28;20454;-83
2022/05/15 02:03:58;;;;;;;4.90;3.30;;;22.10;41.80;;;;;;5038633;28;20829;-83
2022/05/15 02:06:28;;;;;;;5.77;2.90;;;22.10;41.90;;;;;;5037868;28;20426;-83
2022/05/15 02:08:57;;;;;;;6.30;2.83;;;22.00;41.80;;;;;;5036315;28;20440;-83
2022/05/15 02:11:26;;;;;;;7.80;3.37;;;22.00;41.70;;;;;;5037244;28;20498;-83
2022/05/15 02:13:54;;;;;;;5.83;3.47;;;22.00;41.80;;;;;;5036830;28;20514;-84
2022/05/15 02:16:22;;;;;;;5.03;2.63;;;22.00;41.90;;;;;;5036355;28;20446;-84
2022/05/15 02:18:50;;;;;;;7.13;2.90;;;22.00;41.80;;;;;;5050179;28;20453;-83
2022/05/15 02:21:24;;;;;;;7.80;3.70;;;22.00;41.90;;;;;;5056678;28;20509;-83
2022/05/15 02:23:53;;;;;;;9.20;3.33;;;22.00;41.90;;;;;;5057082;28;20449;-83
2022/05/15 02:26:23;;;;;;;5.00;3.30;;;21.90;41.80;;;;;;5056778;28;20451;-84
2022/05/15 02:28:51;;;;;;;4.03;2.70;;;21.90;41.80;;;;;;5057201;28;20920;-83
2022/05/15 02:31:19;;;;;;;5.80;3.50;;;21.90;41.80;;;;;;5056216;28;20463;-83
2022/05/15 02:33:47;;;;;;;8.43;3.97;;;21.90;41.80;;;;;;5056108;28;20474;-83
2022/05/15 02:36:16;;;;;;;7.57;3.67;;;21.90;41.90;;;;;;5062013;28;20465;-83
2022/05/15 02:38:44;;;;;;;7.27;3.50;;;21.80;41.90;;;;;;5055745;28;20770;-84
2022/05/15 02:41:15;;;;;;;6.80;3.27;;;21.90;41.90;;;;;;5055270;28;20470;-84
2022/05/15 02:43:54;;;;;;;4.60;3.07;;;21.80;41.80;;;;;;5056486;28;20470;-83
2022/05/15 02:46:22;;;;;;;5.27;3.40;;;21.80;41.90;;;;;;5057007;28;20530;-83
2022/05/15 02:51:35;;;;;;;6.07;3.70;;;21.70;41.90;;;;;;5054455;28;20451;-84
2022/05/15 02:54:05;;;;;;;9.10;3.70;;;21.70;41.90;;;;;;5055130;28;20530;-84
2022/05/15 02:56:35;;;;;;;7.07;3.17;;;21.70;42.00;;;;;;5054368;28;20420;-84
2022/05/15 02:59:09;;;;;;;5.43;3.37;;;21.70;41.80;;;;;;5054396;28;20446;-84
2022/05/15 03:01:37;;;;;;;9.23;3.83;;;21.60;42.00;;;;;;5054357;28;20413;-84
2022/05/15 03:04:05;;;;;;;5.50;3.20;;;21.60;42.10;;;;;;5054150;28;20470;-84
2022/05/15 03:06:33;;;;;;;6.40;3.03;;;21.60;42.00;;;;;;5053966;28;20455;-84
2022/05/15 03:09:02;;;;;;;6.20;3.50;;;21.60;42.00;;;;;;5054520;28;20470;-83
2022/05/15 03:11:31;;;;;;;7.03;3.50;;;21.60;42.10;;;;;;5055554;28;20458;-84
2022/05/15 03:13:59;;;;;;;4.50;3.07;;;21.60;42.10;;;;;;5055139;28;20421;-84
2022/05/15 03:16:29;;;;;;;6.10;3.57;;;21.60;42.10;;;;;;5054539;28;20509;-84
2022/05/15 03:18:57;;;;;;;6.43;2.93;;;21.60;42.00;;;;;;5054525;28;20479;-84
2022/05/15 03:21:31;;;;;;;6.67;3.40;;;21.60;42.00;;;;;;5054366;28;20437;-84
2022/05/15 03:24:00;;;;;;;4.00;3.07;;;21.50;42.10;;;;;;5053899;28;20535;-84
2022/05/15 03:26:29;;;;;;;8.07;3.30;;;21.50;42.10;;;;;;5051196;28;20550;-84
2022/05/15 03:28:57;;;;;;;5.50;3.30;;;21.50;42.10;;;;;;5053936;28;20492;-85
2022/05/15 03:31:26;;;;;;;3.90;2.87;;;21.50;42.10;;;;;;5053797;28;20455;-85
2022/05/15 03:33:55;;;;;;;4.90;3.70;;;21.50;42.20;;;;;;5054074;28;20443;-84
2022/05/15 03:36:23;;;;;;;3.97;3.17;;;21.40;42.10;;;;;;5053919;28;20442;-85
2022/05/15 03:38:52;;;;;;;3.93;2.77;;;21.40;42.20;;;;;;5053894;28;20480;-84
2022/05/15 03:41:20;;;;;;;7.80;3.43;;;21.50;42.30;;;;;;5053746;28;20466;-85
2022/05/15 03:43:48;;;;;;;6.27;3.33;;;21.40;42.20;;;;;;5053600;28;20610;-84
2022/05/15 03:46:16;;;;;;;5.23;3.07;;;21.40;42.30;;;;;;5054268;28;20530;-85
2022/05/15 03:48:45;;;;;;;5.60;3.37;;;21.40;42.20;;;;;;5053882;28;20450;-84
2022/05/15 03:51:15;;;;;;;4.07;2.87;;;21.40;42.20;;;;;;5053818;28;20470;-84
2022/05/15 03:53:43;;;;;;;4.90;3.40;;;21.40;42.30;;;;;;5053795;28;20455;-84
2022/05/15 03:56:11;;;;;;;5.60;3.10;;;21.40;42.30;;;;;;5053532;28;20449;-84
2022/05/15 03:58:39;;;;;;;9.63;3.77;;;21.30;42.00;;;;;;5053548;28;20429;-84
2022/05/15 04:01:07;;;;;;;5.33;3.17;;;21.30;42.20;;;;;;5058830;28;21050;-84
2022/05/15 04:03:36;;;;;;;5.67;3.43;;;21.40;42.30;;;;;;5053526;28;20470;-84
2022/05/15 04:06:04;;;;;;;4.60;3.30;;;21.30;42.20;;;;;;5053152;28;20520;-85
2022/05/15 04:08:34;;;;;;;5.23;3.10;;;21.30;42.20;;;;;;5053318;28;20529;-84
2022/05/15 04:11:02;;;;;;;5.90;3.00;;;21.30;42.20;;;;;;5055192;28;20466;-83
2022/05/15 04:13:30;;;;;;;5.40;2.67;;;21.30;42.10;;;;;;5054611;28;20465;-84
2022/05/15 04:15:59;;;;;;;4.80;3.10;;;21.30;42.20;;;;;;5043740;28;20532;-84
2022/05/15 04:18:27;;;;;;;4.40;3.10;;;21.20;42.00;;;;;;5035108;28;20432;-83
2022/05/15 04:20:55;;;;;;;4.50;3.37;;;21.20;42.20;;;;;;5036130;28;20502;-83
2022/05/15 04:23:23;;;;;;;6.00;3.07;;;21.20;42.30;;;;;;5035475;28;20504;-83
2022/05/15 04:25:52;;;;;;;4.33;2.77;;;21.20;42.20;;;;;;5034252;28;20471;-83
2022/05/15 04:28:20;;;;;;;5.87;3.10;;;21.30;42.30;;;;;;5034380;28;20426;-84
2022/05/15 04:30:49;;;;;;;6.57;3.10;;;21.30;42.20;;;;;;5035923;28;20463;-83
2022/05/15 04:33:17;;;;;;;6.20;3.40;;;21.30;42.40;;;;;;5055579;28;20491;-84
2022/05/15 04:35:45;;;;;;;5.70;3.07;;;21.30;42.30;;;;;;5074933;28;20541;-83
2022/05/15 04:38:13;;;;;;;5.00;3.30;;;21.30;42.20;;;;;;5075600;28;20416;-84
2022/05/15 04:40:42;;;;;;;6.23;3.10;;;21.20;42.20;;;;;;5074497;28;20473;-83
2022/05/15 04:43:11;;;;;;;5.10;2.87;;;21.30;42.30;;;;;;5074280;28;20475;-83
2022/05/15 04:45:39;;;;;;;3.53;2.87;;;21.20;42.30;;;;;;5074338;28;20445;-84
2022/05/15 04:48:10;;;;;;;5.83;3.40;;;21.20;42.30;;;;;;5074267;28;21009;-84
2022/05/15 04:50:40;;;;;;;5.10;3.20;;;21.20;42.10;;;;;;5058328;28;20520;-83
2022/05/15 04:53:08;;;;;;;5.83;2.90;;;21.20;42.30;;;;;;5054999;28;20506;-84
2022/05/15 04:55:36;;;;;;;4.83;2.87;;;21.20;42.20;;;;;;5054558;28;20453;-83
2022/05/15 04:58:04;;;;;;;4.93;2.90;;;21.20;42.20;;;;;;5054693;28;20421;-84
2022/05/15 05:00:34;;;;;;;3.53;2.53;;;21.20;42.20;;;;;;5054306;28;20466;-84
2022/05/15 05:03:02;;;;;;;7.53;3.43;;;21.30;42.40;;;;;;5054302;28;20442;-84
2022/05/15 05:05:37;;;;;;;7.70;3.37;;;21.20;42.20;;;;;;5054582;28;20413;-84
2022/05/15 05:08:07;;;;;;;4.30;3.03;;;21.30;42.30;;;;;;5054091;28;20470;-84
2022/05/15 05:10:35;;;;;;;4.37;3.07;;;21.20;42.20;;;;;;5052765;28;20497;-84
2022/05/15 05:13:04;;;;;;;8.10;3.50;;;21.30;42.10;;;;;;5053154;28;20450;-84
2022/05/15 05:15:33;;;;;;;4.03;2.97;;;21.20;42.30;;;;;;5052728;28;20473;-84
2022/05/15 05:18:01;;;;;;;4.77;3.00;;;21.30;42.10;;;;;;5053356;28;20485;-84
2022/05/15 05:20:29;;;;;;;4.30;2.90;;;21.30;42.20;;;;;;5053121;28;20437;-84
2022/05/15 05:22:58;;;;;;;4.63;3.20;;;21.20;42.20;;;;;;5053014;28;20447;-83
2022/05/15 05:25:29;;;;;;;3.30;2.60;;;21.30;42.30;;;;;;5058971;28;20445;-84
2022/05/15 05:28:00;;;;;;;5.10;2.90;;;21.20;42.10;;;;;;5054412;28;20449;-84
2022/05/15 05:30:31;;;;;;;5.90;3.17;;;21.30;42.20;;;;;;5058178;28;20441;-83
2022/05/15 05:33:11;;;;;;;3.57;2.67;;;21.30;42.20;;;;;;5058547;28;20530;-83
2022/05/15 05:35:47;;;;;;;3.20;2.77;;;21.30;42.10;;;;;;5059039;28;20504;-83
2022/05/15 05:38:15;;;;;;;5.20;2.63;;;21.30;42.20;;;;;;5058417;28;20458;-83
2022/05/15 05:40:45;;;;;;;2.87;2.67;;;21.30;42.20;;;;;;5057375;28;20452;-83
2022/05/15 05:43:13;;;;;;;3.40;2.87;;;21.30;42.10;;;;;;5058205;28;20442;-83
2022/05/15 05:45:41;;;;;;;3.83;3.13;;;21.30;42.10;;;;;;5058226;28;20449;-83
2022/05/15 05:48:13;;;;;;;2.63;2.43;;;21.40;42.10;;;;;;5056710;28;20446;-84
2022/05/15 05:50:41;;;;;;;5.53;3.00;;;21.40;42.10;;;;;;5057489;28;20497;-83
2022/05/15 05:53:09;;;;;;;4.13;2.60;;;21.40;42.00;;;;;;5057885;28;20512;-83
2022/05/15 05:55:37;;;;;;;4.93;2.90;;;21.40;42.00;;;;;;5056966;28;20489;-83
2022/05/15 05:58:06;;;;;;;3.53;2.50;;;21.40;42.00;;;;;;5057531;28;20508;-84
2022/05/15 06:00:35;;;;;;;3.60;2.50;;;21.40;42.00;;;;;;5057201;28;20516;-83
2022/05/15 06:05:50;;;;;;;2.60;2.40;;;21.50;42.10;;;;;;5057039;28;20429;-83
2022/05/15 06:08:18;;;;;;;4.10;3.10;;;21.50;41.90;;;;;;5057585;28;20405;-84
2022/05/15 06:10:47;;;;;;;2.57;2.37;;;21.50;42.10;;;;;;5056666;28;20486;-83
2022/05/15 06:13:15;;;;;;;4.50;2.53;;;21.50;41.90;;;;;;5056321;28;20446;-83
2022/05/15 06:15:43;;;;;;;3.53;2.83;;;21.50;41.90;;;;;;5056424;28;20509;-83
2022/05/15 06:18:12;;;;;;;6.10;2.70;;;21.60;41.90;;;;;;5056391;28;20446;-84
2022/05/15 06:20:50;;;;;;;2.60;2.40;;;21.60;41.90;;;;;;5056442;28;20992;-83
2022/05/15 06:23:19;;;;;;;4.47;2.43;;;21.60;42.00;;;;;;5056688;28;20444;-83
2022/05/15 06:25:47;;;;;;;3.30;2.80;;;21.70;41.80;;;;;;5055661;28;20445;-84
2022/05/15 06:28:15;;;;;;;4.10;2.80;;;21.70;41.70;;;;;;5052325;28;20465;-83
2022/05/15 06:30:43;;;;;;;6.87;2.50;;;21.80;41.60;;;;;;5036028;28;20465;-84
2022/05/15 06:33:11;;;;;;;5.70;2.97;;;21.80;41.70;;;;;;5036741;28;20517;-84
2022/05/15 06:35:44;;;;;;;3.83;2.80;;;21.80;41.50;;;;;;5035820;28;20433;-83
2022/05/15 06:38:13;;;;;;;3.60;2.60;;;21.90;41.50;;;;;;5036526;28;20444;-84
2022/05/15 06:40:42;;;;;;;2.83;2.63;;;21.90;41.60;;;;;;5035418;28;20463;-85
2022/05/15 06:43:10;;;;;;;6.20;2.80;;;22.00;41.60;;;;;;5035914;28;20460;-84
2022/05/15 06:45:38;;;;;;;4.00;2.40;;;22.00;41.60;;;;;;5035041;28;20518;-83
2022/05/15 06:48:10;;;;;;;3.10;2.40;;;22.00;41.60;;;;;;5045557;28;20469;-83
2022/05/15 06:50:39;;;;;;;3.20;2.23;;;22.10;41.60;;;;;;5056298;28;20466;-83
2022/05/15 06:53:13;;;;;;;5.67;2.60;;;22.20;41.50;;;;;;5056185;28;20474;-83
2022/05/15 06:58:30;;;;;;;4.83;2.77;;;22.30;41.50;;;;;;5055369;28;20446;-83
2022/05/15 07:01:00;;;;;;;2.97;2.67;;;22.40;41.50;;;;;;5055249;28;20441;-83
2022/05/15 07:03:28;;;;;;;4.80;2.90;;;22.40;41.50;;;;;;5037500;28;20451;-84
2022/05/15 07:05:57;;;;;;;3.80;2.40;;;22.60;41.50;;;;;;5034678;28;20475;-84
2022/05/15 07:08:27;;;;;;;2.60;2.37;;;22.70;41.50;;;;;;5034981;28;20418;-84
2022/05/15 07:10:55;;;;;;;2.93;2.10;;;22.80;41.30;;;;;;5035108;28;20446;-83
2022/05/15 07:13:26;;;;;;;3.00;2.53;;;22.80;41.30;;;;;;5037760;28;20499;-84
2022/05/15 07:15:54;;;;;;;3.03;2.37;;;22.90;41.30;;;;;;5044861;28;20958;-83
2022/05/15 07:18:23;;;;;;;2.40;2.20;;;23.00;41.30;;;;;;5047135;28;20454;-83
2022/05/15 07:20:54;;;;;;;2.37;2.13;;;23.10;41.30;;;;;;5062701;28;20558;-84
2022/05/15 07:23:23;;;;;;;3.00;2.50;;;23.20;41.20;;;;;;5065334;28;20480;-83
2022/05/15 07:25:58;;;;;;;3.63;2.73;;;23.30;41.30;;;;;;5062297;28;20498;-84
2022/05/15 07:28:29;;;;;;;3.90;2.47;;;23.40;41.40;;;;;;5058259;28;20446;-84
2022/05/15 07:30:57;;;;;;;3.30;2.80;;;23.50;41.20;;;;;;5054913;28;20437;-85
2022/05/15 07:33:29;;;;;;;2.30;2.20;;;23.60;41.40;;;;;;5053424;28;20504;-84
2022/05/15 07:35:57;;;;;;;2.50;2.30;;;23.70;41.40;;;;;;5053511;28;20459;-85
2022/05/15 07:38:25;;;;;;;2.93;2.60;;;23.80;41.30;;;;;;5053574;28;20552;-85
2022/05/15 07:40:54;;;;;;;2.80;2.10;;;23.90;41.20;;;;;;5053632;28;20441;-85
2022/05/15 07:43:23;;;;;;;2.90;2.40;;;24.10;41.20;;;;;;5053817;28;20428;-85
2022/05/15 07:45:55;;;;;;;4.10;2.23;;;24.20;41.10;;;;;;5053639;28;20463;-85
2022/05/15 07:48:24;;;;;;;3.40;2.53;;;24.40;41.10;;;;;;5053871;28;20429;-85
2022/05/15 07:50:56;;;;;;;4.17;2.60;;;24.50;41.10;;;;;;5053356;28;20501;-84
2022/05/15 07:53:27;;;;;;;2.57;2.37;;;24.60;40.90;;;;;;5052561;28;20421;-85
2022/05/15 07:55:59;;;;;;;3.60;2.50;;;24.80;41.10;;;;;;5052644;28;20453;-85
2022/05/15 07:58:28;;;;;;;2.60;2.30;;;24.90;41.00;;;;;;5053764;28;20529;-85
2022/05/15 08:01:03;;;;;;;3.53;2.47;;;25.00;40.80;;;;;;5047307;28;21066;-85
2022/05/15 08:03:46;;;;;;;2.70;2.37;;;25.20;40.80;;;;;;5053460;28;20412;-84
2022/05/15 08:09:08;;;;;;;2.53;2.30;;;25.50;40.70;;;;;;5044602;28;20430;-84
2022/05/15 08:11:43;;;;;;;5.17;2.30;;;25.60;40.60;;;;;;5035522;28;20414;-85
2022/05/15 08:14:20;;;;;;;2.10;1.90;;;25.80;40.50;;;;;;5041741;28;20526;-83
2022/05/15 08:16:56;;;;;;;3.20;2.47;;;25.90;40.40;;;;;;5037307;28;20500;-84
2022/05/15 08:25:17;;;;;;;2.10;2.00;;;26.40;40.00;;;;;;5031900;28;20502;-85
2022/05/15 08:28:02;;;;;;;2.87;2.13;;;26.60;40.00;;;;;;5035279;28;20497;-84
2022/05/15 08:30:49;;;;;;;2.20;2.00;;;26.70;39.80;;;;;;5053308;28;20493;-85
2022/05/15 08:33:26;;;;;;;3.00;2.13;;;27.00;39.70;;;;;;5053144;28;20758;-84
2022/05/15 08:36:18;;;;;;;3.17;2.03;;;27.10;39.60;;;;;;5053448;28;20413;-84
2022/05/15 08:39:00;;;;;;;2.40;2.20;;;27.20;39.40;;;;;;5053406;28;20508;-84
2022/05/15 08:41:37;;;;;;;5.20;2.30;;;27.40;39.30;;;;;;5051412;28;20498;-84
2022/05/15 08:44:10;;;;;;;2.90;2.33;;;27.60;39.20;;;;;;5033501;28;20472;-85
2022/05/15 08:46:46;;;;;;;2.40;2.13;;;27.70;39.00;;;;;;5034450;28;20868;-84
2022/05/15 08:49:21;;;;;;;2.70;2.17;;;27.90;39.00;;;;;;5053388;28;20462;-84
2022/05/15 08:52:00;;;;;;;2.57;2.30;;;28.10;38.80;;;;;;5053331;28;20476;-84
2022/05/15 08:54:28;;;;;;;2.77;2.40;;;28.20;38.70;;;;;;5055859;28;20507;-84
2022/05/15 08:56:56;;;;;;;3.20;2.20;;;28.40;38.60;;;;;;5058113;28;20455;-84
2022/05/15 08:59:28;;;;;;;2.70;2.33;;;28.50;38.60;;;;;;5060972;28;20438;-84
2022/05/15 09:02:04;;;;;;;3.20;2.30;;;28.70;38.40;;;;;;5056265;28;20469;-84
2022/05/15 09:04:36;;;;;;;3.60;2.30;;;28.80;38.20;;;;;;5055977;28;20450;-85
2022/05/15 09:07:17;;;;;;;2.50;2.30;;;29.00;38.20;;;;;;5056524;28;20481;-86
2022/05/15 09:13:46;;;;;;;2.70;2.30;;;29.30;37.90;;;;;;5048352;28;20433;-86
2022/05/15 09:16:23;;;;;;;2.90;2.13;;;29.50;37.70;;;;;;5056685;28;20438;-86
2022/05/15 09:18:53;;;;;;;2.90;2.23;;;29.70;37.50;;;;;;5056363;28;20442;-85
2022/05/15 09:21:25;;;;;;;2.77;2.00;;;29.90;37.40;;;;;;5056185;28;20557;-85
2022/05/15 09:23:54;;;;;;;2.70;2.43;;;30.00;37.20;;;;;;5056202;28;20746;-85
2022/05/15 09:26:31;;;;;;;2.37;2.17;;;30.20;37.00;;;;;;5064409;28;20458;-85
2022/05/15 09:29:05;;;;;;;2.23;2.03;;;30.30;36.80;;;;;;5056237;28;20446;-85
2022/05/15 09:31:42;;;;;;;2.60;2.30;;;30.50;36.70;;;;;;5056477;28;20456;-85
2022/05/15 09:34:14;;;;;;;3.37;2.00;;;30.70;36.60;;;;;;5057518;28;20447;-85
2022/05/15 09:36:43;;;;;;;2.30;2.03;;;30.80;36.40;;;;;;5059255;28;20480;-85
2022/05/15 09:39:17;;;;;;;2.30;2.20;;;31.00;36.20;;;;;;5056631;28;20466;-85
2022/05/15 09:44:40;;;;;;;2.27;2.10;;;31.30;35.90;;;;;;5055692;28;20457;-84
2022/05/15 09:48:01;;;;;;;3.53;2.33;;;31.50;35.80;;;;;;5056250;28;20468;-84
2022/05/15 09:50:59;;;;;;;2.77;2.00;;;31.70;35.70;;;;;;5049566;28;20521;-85
2022/05/15 09:53:33;;;;;;;3.43;1.70;;;31.90;35.50;;;;;;5056410;28;20533;-85
2022/05/15 09:56:05;;;;;;;3.07;2.20;;;32.10;35.20;;;;;;5056436;28;20506;-86
2022/05/15 09:58:38;;;;;;;2.30;2.10;;;32.20;35.00;;;;;;5055697;28;20488;-84
2022/05/15 10:01:23;;;;;;;3.40;2.37;;;32.40;34.90;;;;;;5035926;28;20494;-85
2022/05/15 10:03:52;;;;;;;2.10;1.90;;;32.60;34.70;;;;;;5037412;28;20475;-85
2022/05/15 10:06:23;;;;;;;2.30;2.10;;;32.80;34.50;;;;;;5039098;28;20506;-85
2022/05/15 10:09:11;;;;;;;2.13;1.87;;;32.90;34.30;;;;;;5044767;28;20436;-86
2022/05/15 10:11:45;;;;;;;2.20;2.10;;;33.10;34.20;;;;;;5056190;28;20477;-85
2022/05/15 10:14:24;;;;;;;2.07;1.97;;;33.30;33.90;;;;;;5055381;28;20496;-85
2022/05/15 10:16:58;;;;;;;6.10;1.90;;;33.50;33.80;;;;;;5054640;28;20458;-86
2022/05/15 10:19:38;;;;;;;2.07;1.80;;;33.70;33.60;;;;;;5055638;28;20462;-86
2022/05/15 10:22:14;;;;;;;2.60;1.87;;;33.90;33.40;;;;;;5055203;28;20442;-85
2022/05/15 10:25:09;;;;;;;2.03;1.90;;;34.10;33.20;;;;;;5055664;28;20431;-85
2022/05/15 10:27:38;;;;;;;2.10;1.93;;;34.30;33.00;;;;;;5057061;28;20488;-85
2022/05/15 10:30:09;;;;;;;1.70;1.60;;;34.50;32.60;;;;;;5056508;28;20625;-85
2022/05/15 10:32:39;;;;;;;1.90;1.67;;;34.70;32.40;;;;;;5057748;28;20447;-82
2022/05/15 10:35:08;;;;;;;1.87;1.77;;;34.90;32.20;;;;;;5056662;28;20469;-85
2022/05/15 10:37:49;;;;;;;3.40;2.30;;;35.10;32.00;;;;;;5055424;28;20457;-85
2022/05/15 10:40:21;;;;;;;1.90;1.80;;;35.30;31.70;;;;;;5055594;28;20486;-85
2022/05/15 10:43:09;;;;;;;1.70;1.60;;;35.50;31.50;;;;;;5056424;28;20445;-84
2022/05/15 10:49:12;;;;;;;1.90;1.80;;;36.00;31.00;;;;;;5052958;28;20458;-82
2022/05/15 10:51:48;;;;;;;1.70;1.60;;;36.30;30.60;;;;;;5058288;28;20442;-83
2022/05/15 10:57:29;;;;;;;1.70;1.60;;;36.70;30.00;;;;;;5059777;28;20510;-83
2022/05/15 11:00:02;;;;;;;2.50;1.73;;;36.90;29.80;;;;;;5058614;28;20474;-83
2022/05/15 11:03:15;;;;;;;1.83;1.60;;;37.20;29.70;;;;;;5062535;28;20462;-84
2022/05/15 11:05:53;;;;;;;3.40;1.90;;;37.20;29.70;;;;;;5062793;28;20462;-80
2022/05/15 11:08:28;;;;;;;2.97;2.70;;;35.30;28.70;;;;;;5059302;28;20478;-83
2022/05/15 11:11:01;;;;;;;8.60;2.50;;;34.80;27.60;;;;;;5060588;28;20473;-84
2022/05/15 11:13:31;;;;;;;10.37;2.67;;;34.40;28.30;;;;;;5055820;28;20450;-81
2022/05/15 11:16:01;;;;;;;4.17;2.50;;;33.90;29.30;;;;;;5049968;28;20450;-81
2022/05/15 11:18:43;;;;;;;12.23;3.00;;;33.60;30.20;;;;;;5040282;28;20471;-82
2022/05/15 11:21:13;;;;;;;3.50;2.40;;;33.60;30.40;;;;;;5040096;28;20460;-80
2022/05/15 11:23:43;;;;;;;5.37;2.83;;;33.90;30.20;;;;;;5039020;28;20455;-81
2022/05/15 11:26:16;;;;;;;4.57;2.20;;;34.00;29.70;;;;;;5043083;28;20520;-81
2022/05/15 11:28:45;;;;;;;4.33;2.60;;;33.20;30.30;;;;;;5062768;28;20521;-82
2022/05/15 11:31:15;;;;;;;7.47;2.80;;;32.70;31.00;;;;;;5067166;28;20538;-82
2022/05/15 11:33:52;;;;;;;7.20;2.40;;;32.40;31.90;;;;;;5064114;28;20443;-82
2022/05/15 11:36:35;;;;;;;6.00;2.60;;;32.10;32.40;;;;;;5066500;28;20450;-81
2022/05/15 11:39:22;;;;;;;6.30;2.90;;;31.80;32.70;;;;;;5052193;28;20494;-83
2022/05/15 11:42:10;;;;;;;7.10;2.47;;;31.60;33.10;;;;;;5054138;28;20450;-83
2022/05/15 11:44:40;;;;;;;6.13;2.73;;;31.40;33.70;;;;;;5060340;28;20443;-81
2022/05/15 11:47:34;;;;;;;3.50;2.30;;;31.30;34.10;;;;;;5067245;28;20467;-82
2022/05/15 11:50:06;;;;;;;5.90;2.50;;;31.10;34.30;;;;;;5067032;28;20474;-82
2022/05/15 11:52:37;;;;;;;4.60;2.43;;;31.10;34.40;;;;;;5065683;28;20438;-85
2022/05/15 11:55:36;;;;;;;12.67;3.13;;;31.00;34.60;;;;;;5068449;28;20470;-80
2022/05/15 11:58:17;;;;;;;7.60;2.70;;;31.00;34.70;;;;;;5069805;28;20434;-79
2022/05/15 12:00:45;;;;;;;6.30;2.80;;;30.90;34.50;;;;;;5065301;28;20494;-79
2022/05/15 12:03:29;;;;;;;7.57;2.70;;;30.70;34.60;;;;;;5064064;28;20471;-79
2022/05/15 12:06:04;;;;;;;7.10;3.00;;;30.60;33.90;;;;;;5057326;28;20485;-80
2022/05/15 12:08:33;;;;;;;6.03;2.83;;;30.70;33.70;;;;;;5061999;28;20533;-79
2022/05/15 12:11:14;;;;;;;4.47;2.40;;;30.80;33.90;;;;;;5059169;28;20465;-78
2022/05/15 12:13:46;;;;;;;7.17;2.80;;;30.80;33.00;;;;;;5057524;28;20465;-79
2022/05/15 12:16:17;;;;;;;9.37;2.63;;;30.70;30.70;;;;;;5062656;28;20613;-80
2022/05/15 12:18:45;;;;;;;4.70;2.30;;;30.70;30.50;;;;;;5061375;28;20465;-79
2022/05/15 12:21:14;;;;;;;6.00;2.30;;;30.80;32.00;;;;;;5059249;28;20490;-79
2022/05/15 12:24:26;;;;;;;5.90;2.40;;;30.80;32.60;;;;;;5058410;28;20533;-79
2022/05/15 12:26:38;;;;;;;4.77;2.30;;;30.70;32.70;;;;;;5064753;28;20454;-80
2022/05/15 12:29:10;;;;;;;5.27;2.63;;;30.70;32.00;;;;;;5061023;28;20566;-84
2022/05/15 12:31:38;;;;;;;4.97;2.47;;;30.80;28.30;;;;;;5057205;28;20458;-80
2022/05/15 12:34:16;;;;;;;4.90;1.90;;;32.20;28.40;;;;;;5054107;28;20478;-83
2022/05/15 12:36:45;;;;;;;7.53;2.70;;;34.60;27.40;;;;;;5038964;28;20538;-84
2022/05/15 12:39:14;;;;;;;6.97;1.87;;;36.50;25.40;;;;;;5040736;28;20470;-83
2022/05/15 12:41:43;;;;;;;3.17;2.03;;;36.20;24.90;;;;;;5043551;28;20537;-84
2022/05/15 12:44:13;;;;;;;4.13;1.97;;;37.60;23.90;;;;;;5043114;28;20530;-81
2022/05/15 12:46:53;;;;;;;2.43;2.30;;;38.60;23.30;;;;;;5043383;28;20443;-82
2022/05/15 12:49:30;;;;;;;3.13;2.60;;;39.20;22.60;;;;;;5042387;28;20438;-83
2022/05/15 12:52:17;;;;;;;3.10;2.87;;;39.40;22.40;;;;;;5044221;28;20493;-83
2022/05/15 12:54:46;;;;;;;4.63;2.37;;;39.70;21.10;;;;;;5041967;28;20447;-85
2022/05/15 12:57:15;;;;;;;3.53;2.50;;;37.50;20.10;;;;;;5040003;28;20985;-85
2022/05/15 12:59:46;;;;;;;2.73;2.53;;;38.70;22.40;;;;;;5046044;28;20467;-83
2022/05/15 13:02:22;;;;;;;4.03;2.50;;;39.50;21.90;;;;;;5064295;28;20453;-83
2022/05/15 13:04:51;;;;;;;3.70;2.20;;;39.60;21.40;;;;;;5061635;28;20439;-80
2022/05/15 13:07:23;;;;;;;2.00;1.90;;;39.60;20.80;;;;;;5044628;28;20485;-80
2022/05/15 13:09:57;;;;;;;4.83;1.90;;;38.00;21.30;;;;;;5040655;28;20451;-82
2022/05/15 13:12:26;;;;;;;2.63;1.93;;;36.90;22.60;;;;;;5039330;28;20522;-81
2022/05/15 13:14:55;;;;;;;2.83;1.60;;;36.50;23.30;;;;;;5038250;28;20443;-81
2022/05/15 13:17:28;;;;;;;4.63;2.57;;;36.20;24.20;;;;;;5038327;28;20525;-81
2022/05/15 13:19:56;;;;;;;2.70;1.70;;;35.80;23.80;;;;;;5038022;28;20495;-79
2022/05/15 13:22:25;;;;;;;4.80;1.93;;;35.40;24.80;;;;;;5038190;28;20451;-81
2022/05/15 13:24:55;;;;;;;3.43;1.53;;;34.90;25.20;;;;;;5037703;28;20448;-79
2022/05/15 13:27:24;;;;;;;3.77;2.07;;;34.60;25.80;;;;;;5057339;28;20450;-80
2022/05/15 13:29:52;;;;;;;4.63;1.87;;;34.10;24.00;;;;;;5055728;28;20462;-79
2022/05/15 13:32:22;;;;;;;5.33;1.87;;;33.60;25.90;;;;;;5056134;28;20446;-79
2022/05/15 13:34:51;;;;;;;5.30;1.90;;;33.30;26.20;;;;;;5055703;28;20435;-79
2022/05/15 13:37:29;;;;;;;2.33;1.70;;;32.30;26.10;;;;;;5055692;28;20520;-79
2022/05/15 13:45:31;;;;;;;1.70;1.60;;;31.80;27.00;;;;;;5055878;28;20434;-79